createdAt,value
2017-08-24T00:00:38.086Z,85.30
2017-08-24T00:03:28.975Z,85.80
2017-08-24T00:26:38.607Z,88.10
2017-08-24T00:49:09.345Z,90.10
2017-08-24T01:00:23.732Z,90.50
2017-08-24T01:47:29.486Z,91.40
2017-08-24T02:10:13.460Z,92.60
2017-08-24T02:24:48.966Z,92.70
2017-08-24T02:39:22.465Z,92.90
2017-08-24T02:41:59.136Z,93.00
2017-08-24T02:47:39.350Z,93.10
2017-08-24T03:53:38.335Z,93.40
2017-08-24T03:56:05.787Z,93.40
2017-08-24T03:58:33.243Z,93.40
2017-08-24T04:01:00.687Z,93.50
2017-08-24T04:03:28.128Z,93.60
2017-08-24T04:05:55.575Z,93.60
2017-08-24T04:08:23.031Z,93.70
2017-08-24T04:10:50.466Z,93.90
2017-08-24T04:13:17.919Z,93.70
2017-08-24T04:15:45.359Z,93.60
2017-08-24T04:18:12.808Z,93.60
2017-08-24T04:20:40.253Z,93.60
2017-08-24T04:23:07.699Z,93.60
2017-08-24T04:25:35.143Z,93.60
2017-08-24T04:28:02.588Z,93.60
2017-08-24T04:30:30.031Z,93.60
2017-08-24T04:32:57.475Z,93.50
2017-08-24T04:35:24.917Z,93.50
2017-08-24T04:37:52.367Z,93.50
2017-08-24T04:40:19.808Z,93.30
2017-08-24T04:42:47.259Z,93.20
2017-08-24T04:45:14.705Z,93.00
2017-08-24T04:47:42.155Z,92.70
2017-08-24T04:50:09.600Z,92.60
2017-08-24T05:37:54.215Z,84.00
2017-08-24T05:40:21.659Z,83.20
2017-08-24T05:42:49.108Z,82.90
2017-08-24T05:45:16.559Z,81.70
2017-08-24T05:47:44.059Z,81.40
2017-08-24T05:50:11.512Z,81.00
2017-08-24T05:52:38.950Z,80.70
2017-08-24T05:55:06.396Z,79.80
2017-08-24T05:57:33.826Z,78.60
2017-08-24T06:00:01.276Z,77.90
2017-08-24T06:02:28.711Z,77.10
2017-08-24T06:04:56.160Z,76.40
2017-08-24T06:07:23.627Z,75.70
2017-08-24T06:09:51.068Z,74.80
2017-08-24T06:12:18.502Z,73.80
2017-08-24T06:14:45.939Z,73.50
2017-08-24T06:17:13.387Z,72.70
2017-08-24T06:19:40.826Z,71.70
2017-08-24T06:22:08.267Z,71.00
2017-08-24T06:24:35.719Z,69.20
2017-08-24T06:27:03.143Z,66.40
2017-08-24T06:29:30.586Z,63.00
2017-08-24T06:31:58.025Z,59.90
2017-08-24T06:34:25.564Z,57.10
2017-08-24T06:36:52.996Z,54.50
2017-08-24T06:39:20.439Z,53.40
2017-08-24T06:41:47.908Z,52.60
2017-08-24T06:44:15.340Z,51.80
2017-08-24T06:46:42.824Z,51.20
2017-08-24T06:49:10.276Z,51.10
2017-08-24T06:51:37.715Z,51.20
2017-08-24T06:54:05.157Z,51.00
2017-08-24T06:56:32.599Z,50.90
2017-08-24T06:59:00.031Z,51.00
2017-08-24T07:01:27.477Z,50.50
2017-08-24T07:03:54.908Z,51.00
2017-08-24T07:06:22.347Z,50.60
2017-08-24T07:08:49.795Z,51.00
2017-08-24T07:11:17.237Z,50.70
2017-08-24T07:13:44.667Z,50.40
2017-08-24T07:16:12.110Z,50.10
2017-08-24T07:18:39.535Z,49.70
2017-08-24T07:21:06.984Z,49.90
2017-08-24T07:23:34.421Z,50.50
2017-08-24T07:26:01.859Z,50.80
2017-08-24T07:28:29.286Z,50.30
2017-08-24T07:30:56.731Z,50.00
2017-08-24T07:33:24.159Z,49.30
2017-08-24T07:35:51.595Z,49.20
2017-08-24T07:38:19.032Z,48.90
2017-08-24T07:40:46.468Z,49.10
2017-08-24T07:43:13.927Z,48.60
2017-08-24T07:45:41.365Z,48.80
2017-08-24T07:48:08.808Z,49.20
2017-08-24T07:50:36.240Z,49.00
2017-08-24T07:53:03.681Z,48.70
2017-08-24T07:55:31.115Z,48.20
2017-08-24T07:57:58.554Z,48.40
2017-08-24T08:00:26.010Z,48.30
2017-08-24T08:02:53.445Z,48.20
2017-08-24T08:05:20.878Z,48.40
2017-08-24T08:07:48.316Z,47.90
2017-08-24T08:10:15.751Z,47.40
2017-08-24T08:12:43.185Z,47.00
2017-08-24T08:15:10.617Z,46.10
2017-08-24T08:17:38.051Z,46.00
2017-08-24T08:20:05.485Z,46.70
2017-08-24T08:22:32.925Z,46.70
2017-08-24T08:25:00.358Z,46.80
2017-08-24T08:27:27.792Z,46.90
2017-08-24T08:29:55.218Z,47.10
2017-08-24T08:32:22.675Z,47.90
2017-08-24T08:34:50.139Z,48.20
2017-08-24T08:37:17.606Z,49.20
2017-08-24T08:39:45.050Z,50.10
2017-08-24T08:42:12.505Z,50.50
2017-08-24T08:44:39.948Z,51.40
2017-08-24T08:47:07.385Z,51.30
2017-08-24T08:49:34.882Z,51.70
2017-08-24T08:52:02.315Z,52.90
2017-08-24T08:54:29.760Z,53.60
2017-08-24T08:56:57.214Z,54.50
2017-08-24T08:59:24.705Z,55.00
2017-08-24T09:01:52.136Z,55.50
2017-08-24T09:04:19.577Z,55.80
2017-08-24T09:06:47.009Z,56.10
2017-08-24T09:09:14.461Z,55.90
2017-08-24T09:11:41.893Z,55.70
2017-08-24T09:14:09.347Z,56.00
2017-08-24T09:16:36.808Z,55.50
2017-08-24T09:19:04.249Z,55.60
2017-08-24T09:21:31.675Z,55.90
2017-08-24T09:23:59.125Z,55.70
2017-08-24T09:26:26.554Z,55.80
2017-08-24T09:28:54.051Z,55.70
2017-08-24T09:31:21.515Z,56.30
2017-08-24T09:33:48.962Z,56.40
2017-08-24T09:36:16.497Z,56.60
2017-08-24T09:38:43.956Z,56.40
2017-08-24T09:41:11.592Z,56.50
2017-08-24T09:43:39.136Z,56.30
2017-08-24T09:46:06.594Z,56.40
2017-08-24T09:48:34.044Z,57.20
2017-08-24T09:51:01.485Z,56.30
2017-08-24T09:53:28.927Z,56.00
2017-08-24T09:55:56.373Z,55.60
2017-08-24T09:58:23.816Z,55.10
2017-08-24T10:00:51.248Z,54.30
2017-08-24T10:03:18.684Z,54.70
2017-08-24T10:05:46.128Z,54.60
2017-08-24T10:08:13.575Z,54.60
2017-08-24T10:10:41.019Z,54.50
2017-08-24T10:13:08.460Z,55.10
2017-08-24T10:15:35.909Z,55.10
2017-08-24T10:18:03.348Z,55.60
2017-08-24T10:20:30.794Z,55.70
2017-08-24T10:22:58.253Z,55.70
2017-08-24T10:25:25.679Z,55.80
2017-08-24T10:27:53.127Z,55.20
2017-08-24T10:30:20.633Z,54.70
2017-08-24T10:32:48.009Z,55.10
2017-08-24T10:35:15.460Z,55.10
2017-08-24T10:37:42.892Z,54.30
2017-08-24T10:40:10.332Z,53.90
2017-08-24T10:42:37.775Z,54.10
2017-08-24T10:45:05.212Z,55.30
2017-08-24T10:47:32.659Z,55.50
2017-08-24T10:50:00.100Z,55.60
2017-08-24T10:52:27.568Z,54.80
2017-08-24T10:54:55.011Z,54.70
2017-08-24T10:57:22.467Z,55.40
2017-08-24T10:59:49.970Z,54.70
2017-08-24T11:02:17.396Z,55.90
2017-08-24T11:04:44.833Z,55.90
2017-08-24T11:07:12.267Z,55.70
2017-08-24T11:09:39.731Z,54.50
2017-08-24T11:12:07.172Z,53.60
2017-08-24T11:14:34.607Z,54.80
2017-08-24T11:17:02.045Z,52.60
2017-08-24T11:19:29.479Z,52.20
2017-08-24T11:21:56.924Z,51.60
2017-08-24T11:24:24.365Z,52.50
2017-08-24T11:26:51.812Z,52.60
2017-08-24T11:29:19.256Z,52.10
2017-08-24T11:31:46.696Z,52.70
2017-08-24T11:34:14.148Z,52.50
2017-08-24T11:36:41.584Z,53.00
2017-08-24T11:39:09.015Z,54.00
2017-08-24T11:41:36.467Z,52.90
2017-08-24T11:44:03.901Z,52.90
2017-08-24T11:46:31.348Z,51.40
2017-08-24T11:48:58.778Z,51.10
2017-08-24T11:51:26.207Z,49.70
2017-08-24T11:53:53.648Z,50.30
2017-08-24T11:56:21.080Z,49.60
2017-08-24T11:58:48.527Z,50.80
2017-08-24T12:01:15.963Z,50.70
2017-08-24T12:03:43.407Z,51.40
2017-08-24T12:06:10.843Z,51.00
2017-08-24T12:08:38.312Z,51.80
2017-08-24T12:11:05.747Z,51.00
2017-08-24T12:13:33.183Z,52.20
2017-08-24T12:16:00.624Z,51.70
2017-08-24T12:18:28.066Z,52.00
2017-08-24T12:20:55.496Z,52.10
2017-08-24T12:23:23.002Z,51.90
2017-08-24T12:25:50.451Z,51.80
2017-08-24T12:28:17.887Z,52.80
2017-08-24T12:30:45.316Z,53.10
2017-08-24T12:33:12.756Z,53.30
2017-08-24T12:35:40.188Z,51.50
2017-08-24T12:38:07.618Z,51.70
2017-08-24T12:40:35.779Z,51.70
2017-08-24T12:43:03.208Z,51.00
2017-08-24T12:45:30.645Z,51.70
2017-08-24T12:47:58.092Z,52.00
2017-08-24T12:50:25.538Z,52.70
2017-08-24T12:52:52.972Z,51.40
2017-08-24T12:55:20.415Z,51.60
2017-08-24T12:57:47.853Z,51.20
2017-08-24T13:00:15.295Z,51.20
2017-08-24T13:02:42.765Z,50.50
2017-08-24T13:05:10.212Z,49.80
2017-08-24T13:07:37.643Z,49.70
2017-08-24T13:10:05.090Z,49.40
2017-08-24T13:12:32.523Z,49.90
2017-08-24T13:14:59.965Z,49.20
2017-08-24T13:17:27.408Z,49.20
2017-08-24T13:19:54.846Z,48.90
2017-08-24T13:22:22.284Z,48.70
2017-08-24T13:24:49.768Z,47.70
2017-08-24T13:27:17.188Z,47.90
2017-08-24T13:29:44.624Z,47.30
2017-08-24T13:32:12.064Z,46.70
2017-08-24T13:34:39.505Z,47.10
2017-08-24T13:37:06.935Z,47.30
2017-08-24T13:39:34.393Z,47.40
2017-08-24T13:42:01.807Z,46.80
2017-08-24T13:44:29.243Z,46.50
2017-08-24T13:46:56.692Z,46.40
2017-08-24T13:49:24.131Z,46.70
2017-08-24T13:51:51.576Z,46.80
2017-08-24T13:54:19.015Z,46.70
2017-08-24T13:56:46.452Z,46.10
2017-08-24T13:59:13.887Z,47.20
2017-08-24T14:01:41.332Z,48.00
2017-08-24T14:04:08.762Z,46.80
2017-08-24T14:06:36.201Z,45.50
2017-08-24T14:09:03.637Z,45.20
2017-08-24T14:11:31.080Z,44.90
2017-08-24T14:13:58.527Z,44.60
2017-08-24T14:16:25.967Z,44.10
2017-08-24T14:18:53.392Z,43.80
2017-08-24T14:21:20.827Z,44.40
2017-08-24T14:23:48.266Z,44.00
2017-08-24T14:26:15.708Z,43.50
2017-08-24T14:28:43.136Z,43.30
2017-08-24T14:31:10.571Z,43.60
2017-08-24T14:33:38.007Z,43.60
2017-08-24T14:36:05.454Z,43.80
2017-08-24T14:38:32.889Z,42.60
2017-08-24T14:41:00.320Z,42.60
2017-08-24T14:43:27.751Z,42.10
2017-08-24T14:45:55.188Z,42.80
2017-08-24T14:48:22.627Z,42.20
2017-08-24T14:50:50.067Z,43.10
2017-08-24T14:53:17.505Z,42.70
2017-08-24T14:55:44.949Z,43.00
2017-08-24T14:58:12.390Z,43.60
2017-08-24T15:00:39.821Z,44.20
2017-08-24T15:03:07.257Z,43.90
2017-08-24T15:05:34.698Z,43.40
2017-08-24T15:08:02.138Z,43.90
2017-08-24T15:10:29.592Z,43.50
2017-08-24T15:12:57.037Z,43.70
2017-08-24T15:15:24.475Z,43.80
2017-08-24T15:17:51.920Z,44.60
2017-08-24T15:20:19.356Z,43.10
2017-08-24T15:22:46.801Z,43.50
2017-08-24T15:25:14.229Z,42.30
2017-08-24T15:27:41.671Z,43.70
2017-08-24T15:30:09.102Z,43.50
2017-08-24T15:32:36.555Z,43.80
2017-08-24T15:35:03.996Z,44.30
2017-08-24T15:37:31.439Z,43.60
2017-08-24T15:39:58.880Z,43.30
2017-08-24T15:42:26.314Z,43.20
2017-08-24T15:44:53.751Z,44.50
2017-08-24T15:47:21.195Z,43.30
2017-08-24T15:49:48.636Z,43.80
2017-08-24T15:52:16.066Z,43.80
2017-08-24T15:54:43.512Z,43.20
2017-08-24T15:57:10.951Z,43.10
2017-08-24T15:59:38.461Z,43.30
2017-08-24T16:02:05.909Z,44.30
2017-08-24T16:04:33.351Z,44.50
2017-08-24T16:07:00.797Z,45.20
2017-08-24T16:09:28.238Z,45.30
2017-08-24T16:11:55.678Z,45.90
2017-08-24T16:14:23.130Z,46.40
2017-08-24T16:16:50.571Z,46.70
2017-08-24T16:19:18.027Z,46.50
2017-08-24T16:21:45.462Z,47.20
2017-08-24T16:24:12.929Z,47.30
2017-08-24T16:26:40.373Z,47.10
2017-08-24T16:29:07.808Z,47.60
2017-08-24T16:31:35.238Z,48.30
2017-08-24T16:34:02.681Z,48.90
2017-08-24T16:36:30.127Z,48.70
2017-08-24T16:39:03.111Z,48.70
2017-08-24T16:41:30.549Z,49.10
2017-08-24T16:43:57.982Z,48.90
2017-08-24T16:46:25.420Z,48.70
2017-08-24T16:48:52.852Z,49.20
2017-08-24T16:51:20.293Z,48.70
2017-08-24T16:53:47.719Z,49.50
2017-08-24T16:56:15.167Z,49.30
2017-08-24T16:58:42.604Z,49.60
2017-08-24T17:01:10.043Z,50.10
2017-08-24T17:03:37.489Z,49.80
2017-08-24T17:06:04.932Z,50.00
2017-08-24T17:08:32.364Z,50.70
2017-08-24T17:10:59.809Z,51.40
2017-08-24T17:13:27.235Z,52.20
2017-08-24T17:15:54.683Z,52.80
2017-08-24T17:18:22.118Z,52.90
2017-08-24T17:20:49.573Z,53.00
2017-08-24T17:23:17.011Z,53.60
2017-08-24T17:25:44.448Z,54.40
2017-08-24T17:28:11.875Z,55.20
2017-08-24T17:30:39.319Z,55.70
2017-08-24T17:33:06.795Z,56.20
2017-08-24T17:35:34.230Z,56.80
2017-08-24T17:38:01.672Z,57.10
2017-08-24T17:40:29.124Z,57.30
2017-08-24T17:42:56.560Z,57.30
2017-08-24T17:45:24.003Z,57.40
2017-08-24T17:47:51.454Z,57.80
2017-08-24T17:50:18.886Z,58.10
2017-08-24T17:52:46.336Z,58.40
2017-08-24T17:55:13.775Z,58.60
2017-08-24T17:57:41.221Z,59.10
2017-08-24T18:00:08.655Z,59.40
2017-08-24T18:02:36.101Z,59.40
2017-08-24T18:05:03.540Z,59.60
2017-08-24T18:07:30.991Z,59.90
2017-08-24T18:09:58.435Z,59.80
2017-08-24T18:12:25.883Z,59.70
2017-08-24T18:14:53.332Z,60.00
2017-08-24T18:17:20.779Z,59.70
2017-08-24T18:19:48.215Z,59.90
2017-08-24T18:22:15.671Z,59.90
2017-08-24T18:24:43.118Z,60.00
2017-08-24T18:27:10.571Z,58.40
2017-08-24T18:29:38.012Z,57.80
2017-08-24T18:32:05.459Z,58.70
2017-08-24T18:34:32.896Z,57.70
2017-08-24T18:37:00.332Z,57.70
2017-08-24T18:39:27.822Z,58.00
2017-08-24T18:41:55.315Z,59.40
2017-08-24T18:44:22.811Z,60.70
2017-08-24T18:46:50.279Z,61.40
2017-08-24T18:49:17.811Z,62.00
2017-08-24T18:51:45.279Z,62.40
2017-08-24T18:54:12.868Z,62.60
2017-08-24T18:56:40.315Z,62.80
2017-08-24T18:59:07.886Z,63.50
2017-08-24T19:01:35.339Z,64.50
2017-08-24T19:04:02.896Z,65.80
2017-08-24T19:06:30.337Z,67.70
2017-08-24T19:08:57.914Z,70.30
2017-08-24T19:11:26.397Z,73.20
2017-08-24T19:13:54.033Z,74.10
2017-08-24T19:16:21.560Z,75.80
2017-08-24T19:18:49.086Z,78.00
2017-08-24T19:21:16.511Z,78.80
2017-08-24T19:23:43.943Z,80.60
2017-08-24T19:26:11.384Z,81.00
2017-08-24T19:28:38.825Z,82.30
2017-08-24T19:31:06.266Z,83.40
2017-08-24T19:33:33.709Z,83.60
2017-08-24T19:36:01.147Z,85.40
2017-08-24T19:38:30.229Z,86.60
2017-08-24T19:40:58.156Z,88.50
2017-08-24T19:43:49.364Z,88.40
2017-08-24T19:46:20.084Z,90.20
2017-08-24T19:49:04.261Z,90.10
2017-08-24T20:00:23.919Z,90.00
2017-08-24T20:03:02.427Z,90.10
2017-08-24T20:11:33.426Z,90.00
2017-08-24T20:14:02.654Z,89.90
2017-08-24T20:27:54.310Z,88.90
2017-08-24T20:30:27.388Z,89.90
2017-08-24T20:32:57.958Z,89.70
2017-08-24T20:35:28.080Z,89.30
2017-08-24T20:37:56.684Z,90.10
2017-08-24T20:40:34.971Z,90.40
2017-08-24T20:43:17.583Z,90.50
2017-08-24T20:45:46.950Z,90.00
2017-08-24T20:48:16.981Z,90.70
2017-08-24T20:53:19.818Z,90.40
2017-08-24T20:55:50.296Z,90.10
2017-08-24T20:58:18.843Z,90.40
2017-08-24T21:27:47.608Z,90.10
2017-08-24T21:33:16.587Z,89.60
2017-08-24T22:56:31.678Z,93.00
